createdAt,value
2022-11-23T00:00:01.248Z,926.62
2022-11-23T00:00:32.196Z,926.82
2022-11-23T00:01:03.266Z,926.82
2022-11-23T00:01:34.360Z,926.72
2022-11-23T00:02:05.150Z,926.72
2022-11-23T00:02:37.453Z,926.82
2022-11-23T00:03:07.279Z,926.82
2022-11-23T00:03:38.463Z,926.72
2022-11-23T00:04:09.124Z,926.62
2022-11-23T00:04:40.504Z,926.62
2022-11-23T00:05:11.324Z,926.62
2022-11-23T00:05:42.215Z,926.62
2022-11-23T00:06:13.331Z,926.72
2022-11-23T00:06:44.385Z,926.72
2022-11-23T00:07:15.384Z,926.72
2022-11-23T00:07:47.519Z,926.72
2022-11-23T00:08:17.426Z,926.82
2022-11-23T00:08:48.198Z,926.82
2022-11-23T00:09:19.282Z,926.72
2022-11-23T00:09:50.156Z,926.72
2022-11-23T00:10:21.315Z,926.82
2022-11-23T00:10:52.243Z,926.82
2022-11-23T00:11:23.431Z,926.62
2022-11-23T00:11:54.283Z,926.62
2022-11-23T00:12:25.416Z,926.72
2022-11-23T00:12:57.297Z,926.72
2022-11-23T00:13:27.350Z,926.72
2022-11-23T00:13:58.376Z,926.72
2022-11-23T00:14:29.369Z,926.72
2022-11-23T00:15:00.611Z,926.72
2022-11-23T00:15:31.026Z,926.92
2022-11-23T00:16:02.246Z,926.92
2022-11-23T00:16:33.255Z,926.82
2022-11-23T00:17:04.167Z,926.82
2022-11-23T00:17:35.236Z,926.62
2022-11-23T00:18:07.225Z,926.62
2022-11-23T00:18:37.228Z,926.72
2022-11-23T00:19:08.352Z,926.72
2022-11-23T00:19:39.248Z,926.72
2022-11-23T00:20:10.199Z,926.82
2022-11-23T00:20:41.132Z,926.82
2022-11-23T00:21:12.354Z,926.82
2022-11-23T00:21:43.137Z,926.82
2022-11-23T00:22:14.372Z,926.72
2022-11-23T00:22:45.432Z,926.72
2022-11-23T00:23:17.428Z,926.72
2022-11-23T00:23:47.389Z,926.72
2022-11-23T00:24:18.208Z,926.62
2022-11-23T00:24:49.379Z,926.62
2022-11-23T00:25:20.235Z,926.72
2022-11-23T00:25:51.368Z,926.72
2022-11-23T00:26:22.224Z,926.72
2022-11-23T00:26:53.327Z,926.72
2022-11-23T00:27:24.372Z,926.72
2022-11-23T00:27:55.561Z,926.72
2022-11-23T00:28:27.426Z,926.72
2022-11-23T00:28:57.355Z,926.72
2022-11-23T00:29:28.498Z,926.62
2022-11-23T00:29:59.617Z,926.62
2022-11-23T00:30:30.520Z,926.72
2022-11-23T00:31:01.074Z,926.72
2022-11-23T00:31:32.239Z,926.72
2022-11-23T00:32:03.360Z,926.72
2022-11-23T00:32:34.407Z,926.62
2022-11-23T00:33:05.127Z,926.62
2022-11-23T00:33:37.340Z,926.62
2022-11-23T00:34:07.349Z,926.62
2022-11-23T00:34:38.300Z,926.72
2022-11-23T00:35:09.155Z,926.62
2022-11-23T00:35:40.399Z,926.62
2022-11-23T00:36:11.421Z,926.51
2022-11-23T00:36:42.323Z,926.51
2022-11-23T00:37:13.355Z,926.51
2022-11-23T00:37:44.549Z,926.51
2022-11-23T00:38:15.411Z,926.82
2022-11-23T00:38:47.375Z,926.82
2022-11-23T00:39:17.455Z,926.62
2022-11-23T00:39:48.363Z,926.62
2022-11-23T00:40:19.384Z,926.72
2022-11-23T00:40:50.292Z,926.72
2022-11-23T00:41:21.424Z,926.51
2022-11-23T00:41:52.350Z,926.51
2022-11-23T00:42:23.346Z,926.62
2022-11-23T00:42:54.272Z,926.62
2022-11-23T00:43:25.688Z,926.72
2022-11-23T00:43:57.275Z,926.72
2022-11-23T00:44:27.299Z,926.62
2022-11-23T00:44:58.270Z,926.62
2022-11-23T00:45:29.748Z,926.51
2022-11-23T00:46:00.399Z,926.51
2022-11-23T00:46:31.156Z,926.82
2022-11-23T00:47:02.131Z,926.82
2022-11-23T00:47:33.375Z,926.62
2022-11-23T00:48:04.358Z,926.62
2022-11-23T00:48:35.170Z,926.62
2022-11-23T00:49:07.366Z,926.62
2022-11-23T00:49:37.331Z,926.62
2022-11-23T00:50:08.439Z,926.62
2022-11-23T00:50:39.152Z,926.62
2022-11-23T00:51:10.429Z,926.51
2022-11-23T00:51:41.476Z,926.51
2022-11-23T00:52:12.394Z,926.51
2022-11-23T00:52:43.172Z,926.51
2022-11-23T00:53:14.032Z,926.51
2022-11-23T00:53:45.199Z,926.51
2022-11-23T00:54:17.396Z,926.51
2022-11-23T00:54:47.252Z,926.51
2022-11-23T00:55:18.283Z,926.72
2022-11-23T00:55:49.231Z,926.72
2022-11-23T00:56:20.226Z,926.72
2022-11-23T00:56:51.406Z,926.72
2022-11-23T00:57:22.262Z,926.82
2022-11-23T00:57:53.315Z,926.82
2022-11-23T00:58:24.284Z,926.41
2022-11-23T00:58:55.486Z,926.41
2022-11-23T00:59:27.347Z,926.72
2022-11-23T00:59:57.394Z,926.72
2022-11-23T01:00:30.968Z,926.62
2022-11-23T01:00:59.441Z,926.62
2022-11-23T01:01:30.451Z,926.72
2022-11-23T01:02:01.239Z,926.72
2022-11-23T01:02:32.270Z,926.62
2022-11-23T01:03:03.315Z,926.62
2022-11-23T01:03:34.319Z,926.62
2022-11-23T01:04:05.214Z,926.62
2022-11-23T01:04:37.251Z,926.41
2022-11-23T01:05:07.313Z,926.41
2022-11-23T01:05:38.406Z,926.82
2022-11-23T01:06:09.123Z,926.72
2022-11-23T01:06:40.348Z,926.72
2022-11-23T01:07:11.402Z,926.72
2022-11-23T01:07:42.413Z,926.72
2022-11-23T01:08:13.345Z,926.72
2022-11-23T01:08:44.479Z,926.72
2022-11-23T01:09:15.353Z,926.62
2022-11-23T01:09:47.451Z,926.62
2022-11-23T01:10:17.440Z,926.62
2022-11-23T01:10:48.405Z,926.62
2022-11-23T01:11:19.374Z,926.72
2022-11-23T01:11:50.627Z,926.72
2022-11-23T01:12:21.503Z,926.62
2022-11-23T01:12:52.364Z,926.62
2022-11-23T01:13:23.206Z,926.51
2022-11-23T01:13:54.061Z,926.51
2022-11-23T01:14:25.474Z,926.62
2022-11-23T01:14:57.348Z,926.62
2022-11-23T01:15:30.295Z,926.62
2022-11-23T01:15:58.321Z,926.62
2022-11-23T01:16:29.225Z,926.51
2022-11-23T01:17:00.491Z,926.51
2022-11-23T01:17:31.257Z,926.72
2022-11-23T01:18:02.417Z,926.72
2022-11-23T01:18:33.492Z,926.72
2022-11-23T01:19:04.208Z,926.72
2022-11-23T01:19:35.303Z,926.62
2022-11-23T01:20:07.375Z,926.62
2022-11-23T01:20:37.579Z,926.62
2022-11-23T01:21:08.622Z,926.72
2022-11-23T01:21:39.155Z,926.72
2022-11-23T01:22:10.463Z,926.62
2022-11-23T01:22:41.360Z,926.62
2022-11-23T01:23:12.448Z,926.72
2022-11-23T01:23:43.214Z,926.72
2022-11-23T01:24:14.418Z,926.62
2022-11-23T01:24:45.439Z,926.62
2022-11-23T01:25:17.431Z,926.62
2022-11-23T01:25:47.463Z,926.62
2022-11-23T01:26:18.393Z,926.62
2022-11-23T01:26:49.325Z,926.62
2022-11-23T01:27:20.403Z,926.82
2022-11-23T01:27:51.487Z,926.82
2022-11-23T01:28:22.290Z,926.62
2022-11-23T01:28:53.345Z,926.62
2022-11-23T01:29:24.193Z,926.62
2022-11-23T01:29:55.530Z,926.62
2022-11-23T01:30:30.354Z,926.72
2022-11-23T01:30:57.424Z,926.72
2022-11-23T01:31:28.344Z,926.72
2022-11-23T01:31:59.443Z,926.72
2022-11-23T01:32:30.477Z,926.72
2022-11-23T01:33:01.186Z,926.72
2022-11-23T01:33:32.428Z,926.72
2022-11-23T01:34:03.448Z,926.72
2022-11-23T01:34:34.368Z,926.62
2022-11-23T01:35:05.148Z,926.62
2022-11-23T01:35:37.391Z,926.51
2022-11-23T01:36:07.429Z,926.51
2022-11-23T01:36:38.363Z,926.72
2022-11-23T01:37:09.174Z,926.72
2022-11-23T01:37:40.395Z,926.72
2022-11-23T01:38:16.706Z,926.51
2022-11-23T01:38:42.452Z,926.51
2022-11-23T01:39:13.295Z,926.62
2022-11-23T01:39:44.256Z,926.62
2022-11-23T01:40:16.388Z,926.62
2022-11-23T01:40:50.559Z,926.62
2022-11-23T01:41:17.505Z,926.62
2022-11-23T01:41:51.868Z,926.62
2022-11-23T01:42:24.651Z,926.51
2022-11-23T01:42:50.533Z,926.51
2022-11-23T01:43:21.552Z,926.62
2022-11-23T01:43:53.168Z,926.62
2022-11-23T01:44:23.997Z,926.72
2022-11-23T01:44:54.520Z,926.72
2022-11-23T01:45:28.619Z,926.82
2022-11-23T01:45:57.891Z,926.82
2022-11-23T01:46:27.687Z,926.82
2022-11-23T01:46:58.342Z,926.82
2022-11-23T01:47:29.750Z,926.72
2022-11-23T01:48:00.668Z,926.72
2022-11-23T01:48:31.452Z,926.72
2022-11-23T01:49:14.521Z,926.72
2022-11-23T01:49:35.188Z,926.62
2022-11-23T01:50:06.349Z,926.62
2022-11-23T01:50:37.112Z,926.72
2022-11-23T01:51:08.173Z,926.72
2022-11-23T01:51:37.475Z,926.82
2022-11-23T01:52:08.747Z,926.72
2022-11-23T01:52:39.505Z,926.72
2022-11-23T01:53:10.724Z,926.62
2022-11-23T01:53:41.516Z,926.62
2022-11-23T01:54:12.565Z,926.72
2022-11-23T01:54:43.598Z,926.72
2022-11-23T01:55:14.546Z,926.62
2022-11-23T01:55:45.332Z,926.62
2022-11-23T01:56:17.258Z,926.41
2022-11-23T01:56:47.748Z,926.41
2022-11-23T01:57:18.440Z,926.72
2022-11-23T01:57:49.656Z,926.72
2022-11-23T01:58:20.443Z,926.51
2022-11-23T01:58:51.375Z,926.51
2022-11-23T01:59:22.755Z,926.41
2022-11-23T01:59:53.369Z,926.41
2022-11-23T02:00:27.685Z,926.51
2022-11-23T02:00:55.883Z,926.51
2022-11-23T02:01:27.833Z,926.62
2022-11-23T02:01:57.513Z,926.62
2022-11-23T02:02:28.575Z,926.62
2022-11-23T02:02:59.493Z,926.62
2022-11-23T02:03:30.651Z,926.51
2022-11-23T02:04:01.531Z,926.51
2022-11-23T02:04:32.724Z,926.51
2022-11-23T02:05:03.262Z,926.51
2022-11-23T02:05:34.621Z,926.62
2022-11-23T02:06:05.555Z,926.62
2022-11-23T02:06:37.482Z,926.62
2022-11-23T02:07:07.896Z,926.62
2022-11-23T02:07:38.442Z,926.72
2022-11-23T02:08:09.646Z,926.82
2022-11-23T02:08:40.562Z,926.82
2022-11-23T02:09:11.589Z,926.51
2022-11-23T02:09:42.594Z,926.51
2022-11-23T02:10:13.395Z,926.51
2022-11-23T02:10:45.243Z,926.51
2022-11-23T02:11:15.632Z,926.62
2022-11-23T02:11:47.846Z,926.62
2022-11-23T02:12:24.662Z,926.62
2022-11-23T02:12:48.915Z,926.62
2022-11-23T02:13:19.460Z,926.51
2022-11-23T02:13:50.341Z,926.51
2022-11-23T02:14:23.556Z,926.62
2022-11-23T02:14:52.455Z,926.62
2022-11-23T02:15:26.395Z,926.92
2022-11-23T02:15:54.776Z,926.92
2022-11-23T02:16:25.587Z,926.82
2022-11-23T02:16:57.788Z,926.82
2022-11-23T02:17:27.563Z,926.72
2022-11-23T02:17:58.538Z,926.72
2022-11-23T02:18:29.515Z,926.82
2022-11-23T02:19:00.810Z,926.82
2022-11-23T02:19:31.852Z,926.82
2022-11-23T02:20:02.783Z,926.82
2022-11-23T02:20:33.532Z,926.72
2022-11-23T02:21:04.371Z,926.72
2022-11-23T02:21:35.422Z,926.82
2022-11-23T02:22:07.908Z,926.82
2022-11-23T02:22:37.754Z,926.72
2022-11-23T02:23:08.668Z,926.82
2022-11-23T02:23:39.276Z,926.82
2022-11-23T02:24:10.548Z,926.82
2022-11-23T02:24:41.597Z,926.82
2022-11-23T02:25:12.936Z,926.72
2022-11-23T02:25:43.760Z,926.72
2022-11-23T02:26:14.327Z,926.72
2022-11-23T02:26:45.539Z,926.72
2022-11-23T02:27:17.435Z,926.72
2022-11-23T02:27:47.707Z,926.72
2022-11-23T02:28:18.297Z,926.92
2022-11-23T02:28:49.767Z,926.92
2022-11-23T02:29:20.601Z,926.72
2022-11-23T02:29:51.457Z,926.72
2022-11-23T02:30:25.401Z,926.72
2022-11-23T02:30:53.348Z,926.72
2022-11-23T02:31:24.408Z,926.82
2022-11-23T02:31:55.724Z,926.82
2022-11-23T02:32:27.788Z,926.72
2022-11-23T02:32:57.580Z,926.72
2022-11-23T02:33:28.714Z,926.72
2022-11-23T02:33:59.428Z,926.72
2022-11-23T02:34:30.754Z,926.51
2022-11-23T02:35:01.348Z,926.51
2022-11-23T02:35:32.788Z,926.62
2022-11-23T02:36:04.186Z,926.62
2022-11-23T02:36:34.548Z,926.51
2022-11-23T02:37:05.690Z,926.51
2022-11-23T02:37:37.826Z,926.62
2022-11-23T02:38:07.545Z,926.62
2022-11-23T02:38:38.811Z,926.72
2022-11-23T02:39:09.573Z,926.72
2022-11-23T02:39:40.207Z,926.72
2022-11-23T02:40:11.746Z,926.41
2022-11-23T02:40:42.577Z,926.41
2022-11-23T02:41:13.563Z,926.51
2022-11-23T02:41:44.624Z,926.51
2022-11-23T02:42:15.820Z,926.82
2022-11-23T02:42:47.754Z,926.82
2022-11-23T02:43:17.687Z,926.72
2022-11-23T02:43:48.668Z,926.72
2022-11-23T02:44:19.762Z,926.51
2022-11-23T02:44:50.508Z,926.51
2022-11-23T02:45:24.512Z,926.62
2022-11-23T02:45:52.438Z,926.62
2022-11-23T02:46:23.671Z,926.72
2022-11-23T02:46:54.799Z,926.72
2022-11-23T02:47:25.513Z,926.51
2022-11-23T02:47:57.729Z,926.51
2022-11-23T02:48:27.784Z,926.62
2022-11-23T02:48:58.576Z,926.62
2022-11-23T02:49:30.112Z,926.82
2022-11-23T02:50:01.015Z,926.82
2022-11-23T02:50:31.603Z,926.62
2022-11-23T02:51:02.584Z,926.62
2022-11-23T02:51:33.419Z,926.92
2022-11-23T02:52:04.685Z,926.92
2022-11-23T02:52:35.741Z,926.62
2022-11-23T02:53:07.503Z,926.62
2022-11-23T02:53:37.682Z,926.51
2022-11-23T02:54:08.657Z,926.62
2022-11-23T02:54:40.020Z,926.62
2022-11-23T02:55:10.639Z,926.62
2022-11-23T02:55:41.475Z,926.62
2022-11-23T02:56:12.718Z,926.72
2022-11-23T02:56:43.542Z,926.72
2022-11-23T02:57:14.484Z,926.72
2022-11-23T02:57:45.935Z,926.72
2022-11-23T02:58:17.611Z,926.51
2022-11-23T02:58:47.563Z,926.51
2022-11-23T02:59:18.631Z,926.62
2022-11-23T02:59:49.811Z,926.62
2022-11-23T03:00:23.241Z,926.51
2022-11-23T03:00:51.611Z,926.51
2022-11-23T03:01:22.740Z,926.62
2022-11-23T03:01:53.849Z,926.62
2022-11-23T03:02:24.437Z,926.51
2022-11-23T03:02:55.387Z,926.51
2022-11-23T03:03:27.631Z,926.62
2022-11-23T03:03:57.820Z,926.62
2022-11-23T03:04:28.379Z,926.72
2022-11-23T03:04:59.739Z,926.72
2022-11-23T03:05:30.654Z,926.72
2022-11-23T03:06:02.180Z,926.72
2022-11-23T03:06:33.012Z,926.62
2022-11-23T03:07:03.961Z,926.62
2022-11-23T03:07:34.656Z,926.72
2022-11-23T03:08:05.576Z,926.72
2022-11-23T03:08:37.410Z,926.62
2022-11-23T03:09:07.869Z,926.62
2022-11-23T03:09:38.757Z,926.62
2022-11-23T03:10:09.810Z,926.72
2022-11-23T03:10:40.766Z,926.72
2022-11-23T03:11:11.945Z,926.51
2022-11-23T03:11:42.771Z,926.51
2022-11-23T03:12:13.480Z,926.72
2022-11-23T03:12:44.583Z,926.72
2022-11-23T03:13:15.602Z,926.72
2022-11-23T03:13:47.788Z,926.72
2022-11-23T03:14:17.984Z,926.72
2022-11-23T03:14:48.703Z,926.72
2022-11-23T03:15:22.658Z,926.82
2022-11-23T03:15:50.560Z,926.82
2022-11-23T03:16:21.228Z,926.72
2022-11-23T03:16:52.678Z,926.72
2022-11-23T03:17:23.525Z,926.72
2022-11-23T03:17:54.279Z,926.72
2022-11-23T03:18:25.793Z,926.92
2022-11-23T03:18:57.730Z,926.92
2022-11-23T03:19:27.864Z,926.72
2022-11-23T03:19:58.633Z,926.72
2022-11-23T03:20:29.514Z,926.82
2022-11-23T03:21:00.741Z,926.82
2022-11-23T03:21:31.415Z,926.72
2022-11-23T03:22:02.969Z,926.72
2022-11-23T03:22:33.977Z,926.72
2022-11-23T03:23:04.761Z,926.72
2022-11-23T03:23:35.628Z,926.72
2022-11-23T03:24:07.530Z,926.72
2022-11-23T03:24:37.657Z,926.72
2022-11-23T03:25:08.790Z,926.72
2022-11-23T03:25:39.737Z,926.72
2022-11-23T03:26:13.063Z,926.72
2022-11-23T03:26:41.884Z,926.72
2022-11-23T03:27:12.658Z,926.72
2022-11-23T03:27:43.767Z,926.72
2022-11-23T03:28:14.554Z,926.62
2022-11-23T03:28:45.439Z,926.62
2022-11-23T03:29:18.004Z,926.72
2022-11-23T03:29:47.504Z,926.72
2022-11-23T03:30:21.538Z,926.62
2022-11-23T03:30:49.577Z,926.62
2022-11-23T03:31:20.511Z,926.82
2022-11-23T03:31:51.445Z,926.82
2022-11-23T03:32:22.571Z,926.72
2022-11-23T03:32:53.505Z,926.72
2022-11-23T03:33:24.850Z,926.72
2022-11-23T03:33:55.774Z,926.72
2022-11-23T03:34:27.931Z,926.72
2022-11-23T03:34:57.946Z,926.72
2022-11-23T03:35:28.638Z,926.62
2022-11-23T03:35:59.488Z,926.62
2022-11-23T03:36:30.642Z,926.51
2022-11-23T03:37:01.898Z,926.51
2022-11-23T03:37:32.497Z,926.72
2022-11-23T03:38:03.617Z,926.72
2022-11-23T03:38:34.655Z,926.72
2022-11-23T03:39:05.922Z,926.72
2022-11-23T03:39:37.643Z,926.72
2022-11-23T03:40:07.226Z,926.72
2022-11-23T03:40:38.669Z,926.82
2022-11-23T03:41:09.865Z,926.62
2022-11-23T03:41:41.122Z,926.62
2022-11-23T03:42:13.386Z,926.72
2022-11-23T03:42:42.578Z,926.72
2022-11-23T03:43:13.761Z,926.51
2022-11-23T03:43:44.790Z,926.51
2022-11-23T03:44:15.737Z,926.62
2022-11-23T03:44:47.461Z,926.62
2022-11-23T03:45:20.188Z,926.51
2022-11-23T03:45:48.503Z,926.51
2022-11-23T03:46:19.657Z,926.82
2022-11-23T03:46:50.620Z,926.82
2022-11-23T03:47:21.643Z,926.41
2022-11-23T03:47:52.470Z,926.41
2022-11-23T03:48:23.725Z,926.62
2022-11-23T03:48:54.833Z,926.62
2022-11-23T03:49:25.441Z,926.41
2022-11-23T03:49:57.964Z,926.41
2022-11-23T03:50:27.663Z,926.62
2022-11-23T03:50:58.866Z,926.62
2022-11-23T03:51:29.784Z,926.41
2022-11-23T03:52:00.722Z,926.41
2022-11-23T03:52:31.772Z,926.31
2022-11-23T03:53:02.818Z,926.31
2022-11-23T03:53:33.685Z,926.41
2022-11-23T03:54:05.074Z,926.41
2022-11-23T03:54:35.947Z,926.41
2022-11-23T03:55:07.764Z,926.41
2022-11-23T03:55:37.879Z,926.41
2022-11-23T03:56:08.843Z,926.41
2022-11-23T03:56:39.772Z,926.41
2022-11-23T03:57:11.042Z,926.41
2022-11-23T03:57:41.690Z,926.41
2022-11-23T03:58:12.796Z,926.62
2022-11-23T03:58:43.740Z,926.62
2022-11-23T03:59:14.570Z,926.41
2022-11-23T03:59:45.430Z,926.41
2022-11-23T04:00:20.498Z,926.41
2022-11-23T04:00:47.652Z,926.41
2022-11-23T04:01:18.519Z,926.41
2022-11-23T04:01:49.579Z,926.41
2022-11-23T04:02:20.773Z,926.31
2022-11-23T04:02:51.487Z,926.31
2022-11-23T04:03:22.863Z,926.41
2022-11-23T04:03:53.557Z,926.41
2022-11-23T04:04:24.565Z,926.21
2022-11-23T04:04:55.447Z,926.21
2022-11-23T04:05:27.420Z,926.51
2022-11-23T04:05:57.439Z,926.51
2022-11-23T04:06:28.376Z,926.31
2022-11-23T04:06:59.412Z,926.31
2022-11-23T04:07:30.767Z,926.51
2022-11-23T04:10:37.332Z,926.31
2022-11-23T04:11:07.437Z,926.31
2022-11-23T04:11:38.507Z,926.31
2022-11-23T04:12:09.640Z,926.41
2022-11-23T04:12:40.427Z,926.41
2022-11-23T04:13:11.438Z,926.41
2022-11-23T04:13:42.538Z,926.41
2022-11-23T04:14:13.615Z,926.31
2022-11-23T04:14:44.490Z,926.31
2022-11-23T04:15:18.351Z,926.31
2022-11-23T04:15:47.471Z,926.31
2022-11-23T04:16:17.318Z,926.31
2022-11-23T04:16:48.289Z,926.31
2022-11-23T04:17:19.338Z,926.41
2022-11-23T04:17:50.339Z,926.41
2022-11-23T04:18:21.149Z,926.41
2022-11-23T04:18:52.464Z,926.41
2022-11-23T04:19:23.244Z,926.31
2022-11-23T04:19:54.383Z,926.31
2022-11-23T04:20:25.437Z,926.31
2022-11-23T04:20:57.479Z,926.31
2022-11-23T04:21:27.570Z,926.41
2022-11-23T04:21:58.324Z,926.41
2022-11-23T04:22:29.312Z,926.51
2022-11-23T04:23:00.301Z,926.51
2022-11-23T04:23:31.446Z,926.41
2022-11-23T04:24:02.285Z,926.41
2022-11-23T04:24:33.489Z,926.51
2022-11-23T04:25:04.456Z,926.51
2022-11-23T04:25:35.435Z,926.31
2022-11-23T04:26:07.263Z,926.31
2022-11-23T04:26:37.339Z,926.31
2022-11-23T04:27:08.514Z,926.31
2022-11-23T04:27:39.609Z,926.31
2022-11-23T04:28:10.645Z,926.51
2022-11-23T04:28:41.499Z,926.51
2022-11-23T04:29:12.405Z,926.31
2022-11-23T04:29:43.565Z,926.31
2022-11-23T04:30:17.288Z,926.21
2022-11-23T04:30:45.547Z,926.21
2022-11-23T04:31:17.440Z,926.31
2022-11-23T04:31:47.366Z,926.31
2022-11-23T04:32:18.331Z,926.31
2022-11-23T04:32:49.748Z,926.31
2022-11-23T04:33:20.483Z,926.31
2022-11-23T04:33:51.250Z,926.31
2022-11-23T04:34:22.514Z,926.21
2022-11-23T04:34:53.534Z,926.21
2022-11-23T04:35:24.418Z,926.21
2022-11-23T04:35:55.435Z,926.21
2022-11-23T04:36:27.603Z,926.21
2022-11-23T04:36:57.588Z,926.21
2022-11-23T04:37:28.550Z,926.01
2022-11-23T04:37:59.526Z,926.01
2022-11-23T04:38:30.412Z,926.31
2022-11-23T04:39:01.658Z,926.31
2022-11-23T04:39:32.861Z,926.31
2022-11-23T04:40:03.446Z,926.31
2022-11-23T04:40:34.278Z,926.21
2022-11-23T04:41:05.507Z,926.21
2022-11-23T04:41:37.442Z,926.21
2022-11-23T04:42:07.605Z,926.21
2022-11-23T04:42:38.463Z,926.11
2022-11-23T04:43:09.375Z,926.21
2022-11-23T04:43:40.319Z,926.21
2022-11-23T04:44:11.492Z,926.21
2022-11-23T04:44:42.511Z,926.21
2022-11-23T04:45:16.109Z,926.21
2022-11-23T04:45:44.425Z,926.21
2022-11-23T04:46:15.360Z,926.31
2022-11-23T04:46:47.497Z,926.31
2022-11-23T04:47:17.607Z,926.21
2022-11-23T04:47:48.327Z,926.21
2022-11-23T04:48:19.516Z,926.31
2022-11-23T04:48:50.637Z,926.31
2022-11-23T04:49:21.425Z,926.01
2022-11-23T04:49:52.397Z,926.01
2022-11-23T04:50:23.530Z,926.01
2022-11-23T04:50:55.832Z,926.01
2022-11-23T04:51:25.576Z,926.01
2022-11-23T04:51:57.681Z,926.01
2022-11-23T04:52:27.445Z,926.41
2022-11-23T04:52:58.573Z,926.41
2022-11-23T04:53:29.512Z,926.21
2022-11-23T04:54:00.673Z,926.21
2022-11-23T04:54:31.367Z,926.11
2022-11-23T04:55:02.619Z,926.11
2022-11-23T04:55:33.480Z,926.11
2022-11-23T04:56:04.431Z,926.11
2022-11-23T04:56:35.504Z,926.31
2022-11-23T04:57:07.483Z,926.31
2022-11-23T04:57:37.469Z,926.01
2022-11-23T04:58:08.726Z,926.21
2022-11-23T04:58:39.537Z,926.21
2022-11-23T04:59:10.525Z,926.41
2022-11-23T04:59:41.485Z,926.41
2022-11-23T05:00:15.250Z,926.41
2022-11-23T05:00:43.810Z,926.41
2022-11-23T05:01:14.564Z,926.11
2022-11-23T05:01:45.441Z,926.11
2022-11-23T05:02:17.582Z,926.31
2022-11-23T05:02:47.658Z,926.31
2022-11-23T05:03:18.461Z,926.11
2022-11-23T05:03:49.479Z,926.11
2022-11-23T05:04:20.544Z,926.11
2022-11-23T05:04:51.536Z,926.11
2022-11-23T05:05:22.494Z,926.21
2022-11-23T05:05:53.325Z,926.21
2022-11-23T05:06:24.338Z,926.21
2022-11-23T05:06:55.473Z,926.21
2022-11-23T05:07:27.433Z,926.41
2022-11-23T05:07:57.246Z,926.41
2022-11-23T05:08:28.575Z,926.21
2022-11-23T05:08:59.364Z,926.21
2022-11-23T05:09:30.736Z,926.31
2022-11-23T05:10:01.263Z,926.31
2022-11-23T05:10:32.160Z,926.21
2022-11-23T05:11:03.426Z,926.21
2022-11-23T05:11:34.207Z,926.41
2022-11-23T05:12:05.595Z,926.41
2022-11-23T05:12:37.287Z,926.41
2022-11-23T05:13:07.456Z,926.41
2022-11-23T05:13:38.609Z,926.21
2022-11-23T05:14:09.535Z,926.21
2022-11-23T05:14:40.660Z,926.21
2022-11-23T05:15:14.302Z,926.11
2022-11-23T05:15:42.513Z,926.11
2022-11-23T05:16:13.747Z,926.21
2022-11-23T05:16:44.636Z,926.21
2022-11-23T05:17:15.391Z,926.31
2022-11-23T05:17:47.460Z,926.31
2022-11-23T05:18:17.551Z,926.21
2022-11-23T05:18:48.602Z,926.21
2022-11-23T05:19:19.419Z,926.31
2022-11-23T05:19:50.633Z,926.31
2022-11-23T05:20:21.503Z,926.21
2022-11-23T05:20:52.612Z,926.21
2022-11-23T05:21:23.451Z,926.31
2022-11-23T05:21:54.458Z,926.31
2022-11-23T05:22:25.487Z,926.51
2022-11-23T05:22:57.480Z,926.51
2022-11-23T05:23:27.620Z,926.31
2022-11-23T05:23:58.350Z,926.31
2022-11-23T05:24:29.677Z,926.41
2022-11-23T05:25:00.484Z,926.41
2022-11-23T05:25:31.431Z,926.41
2022-11-23T05:26:02.613Z,926.41
2022-11-23T05:26:33.570Z,926.31
2022-11-23T05:27:04.434Z,926.31
2022-11-23T05:27:35.567Z,926.31
2022-11-23T05:28:30.556Z,926.31
2022-11-23T05:29:08.620Z,926.11
2022-11-23T05:29:39.351Z,926.11
2022-11-23T05:30:13.170Z,926.21
2022-11-23T05:30:41.373Z,926.21
2022-11-23T05:31:12.491Z,926.31
2022-11-23T05:31:43.499Z,926.31
2022-11-23T05:32:14.317Z,926.21
2022-11-23T05:32:45.694Z,926.21
2022-11-23T05:33:17.254Z,926.21
2022-11-23T05:33:47.722Z,926.21
2022-11-23T05:34:18.681Z,926.21
2022-11-23T05:34:49.437Z,926.21
2022-11-23T05:35:20.622Z,926.01
2022-11-23T05:35:51.570Z,926.01
2022-11-23T05:36:22.449Z,926.21
2022-11-23T05:36:53.340Z,926.21
2022-11-23T05:37:24.529Z,926.41
2022-11-23T05:37:55.537Z,926.41
2022-11-23T05:38:27.520Z,926.41
2022-11-23T05:38:57.621Z,926.41
2022-11-23T05:39:28.642Z,926.11
2022-11-23T05:39:59.569Z,926.11
2022-11-23T05:40:30.667Z,926.21
2022-11-23T05:41:01.574Z,926.21
2022-11-23T05:41:32.877Z,926.41
2022-11-23T05:42:03.701Z,926.41
2022-11-23T05:42:34.643Z,926.21
2022-11-23T05:43:05.496Z,926.21
2022-11-23T05:43:37.548Z,926.21
2022-11-23T05:44:07.533Z,926.21
2022-11-23T05:44:38.468Z,926.21
2022-11-23T05:45:12.448Z,926.41
2022-11-23T05:45:40.546Z,926.41
2022-11-23T05:46:11.438Z,926.41
2022-11-23T05:46:42.594Z,926.41
2022-11-23T05:47:13.562Z,926.21
2022-11-23T05:47:44.411Z,926.21
2022-11-23T05:48:15.436Z,926.31
2022-11-23T05:48:47.740Z,926.31
2022-11-23T05:49:17.501Z,926.21
2022-11-23T05:49:48.710Z,926.21
2022-11-23T05:50:19.484Z,926.11
2022-11-23T05:50:50.420Z,926.11
2022-11-23T05:51:21.593Z,926.31
2022-11-23T05:51:52.693Z,926.31
2022-11-23T05:52:23.501Z,926.51
2022-11-23T05:52:54.524Z,926.51
2022-11-23T05:53:25.481Z,926.41
2022-11-23T05:53:57.634Z,926.41
2022-11-23T05:54:27.544Z,926.41
2022-11-23T05:54:58.424Z,926.41
2022-11-23T05:55:29.548Z,926.51
2022-11-23T05:56:00.567Z,926.51
2022-11-23T05:56:34.736Z,926.41
2022-11-23T05:57:02.364Z,926.41
2022-11-23T05:57:33.796Z,926.62
2022-11-23T05:58:04.551Z,926.62
2022-11-23T05:58:35.537Z,926.41
2022-11-23T05:59:07.428Z,926.41
2022-11-23T05:59:37.318Z,926.31
2022-11-23T06:00:11.424Z,926.51
2022-11-23T06:00:39.665Z,926.51
2022-11-23T06:01:10.516Z,926.21
2022-11-23T06:01:41.419Z,926.21
2022-11-23T06:02:12.535Z,926.41
2022-11-23T06:02:43.463Z,926.41
2022-11-23T06:03:14.560Z,926.51
2022-11-23T06:03:45.900Z,926.51
2022-11-23T06:04:17.564Z,926.41
2022-11-23T06:04:47.491Z,926.41
2022-11-23T06:05:18.749Z,926.51
2022-11-23T06:05:49.724Z,926.51
2022-11-23T06:06:20.635Z,926.62
2022-11-23T06:06:51.445Z,926.62
2022-11-23T06:07:22.439Z,926.41
2022-11-23T06:07:53.726Z,926.41
2022-11-23T06:08:24.443Z,926.31
2022-11-23T06:08:55.451Z,926.31
2022-11-23T06:09:27.575Z,926.41
2022-11-23T06:09:57.657Z,926.41
2022-11-23T06:10:28.551Z,926.21
2022-11-23T06:10:59.507Z,926.21
2022-11-23T06:11:30.450Z,926.31
2022-11-23T06:12:01.695Z,926.31
2022-11-23T06:12:32.592Z,926.41
2022-11-23T06:13:03.291Z,926.41
2022-11-23T06:13:34.588Z,926.41
2022-11-23T06:14:08.812Z,926.41
2022-11-23T06:14:37.433Z,926.41
2022-11-23T06:15:10.178Z,926.41
2022-11-23T06:15:38.352Z,926.41
2022-11-23T06:16:09.547Z,926.21
2022-11-23T06:16:40.592Z,926.21
2022-11-23T06:17:11.480Z,926.41
2022-11-23T06:17:42.492Z,926.41
2022-11-23T06:18:13.599Z,926.21
2022-11-23T06:18:44.495Z,926.21
2022-11-23T06:19:15.759Z,926.41
2022-11-23T06:19:47.605Z,926.41
2022-11-23T06:20:17.497Z,926.41
2022-11-23T06:20:48.659Z,926.41
2022-11-23T06:21:19.818Z,926.41
2022-11-23T06:21:50.842Z,926.41
2022-11-23T06:22:21.479Z,926.41
2022-11-23T06:22:52.319Z,926.41
2022-11-23T06:23:23.588Z,926.41
2022-11-23T06:23:54.739Z,926.41
2022-11-23T06:24:25.507Z,926.41
2022-11-23T06:24:57.711Z,926.41
2022-11-23T06:25:27.787Z,926.51
2022-11-23T06:25:58.647Z,926.51
2022-11-23T06:26:29.652Z,926.21
2022-11-23T06:27:00.749Z,926.21
2022-11-23T06:27:31.803Z,926.41
2022-11-23T06:28:02.738Z,926.41
2022-11-23T06:28:33.603Z,926.31
2022-11-23T06:29:04.687Z,926.31
2022-11-23T06:29:35.860Z,926.41